This is the latest recevied weather packets stored in our database for station/object KO4YAW. If no packets are shown the sender has not sent any weather packets the latest 10 day(s).
| Time | Temp. | Humidity | Pressure | Rain* | Wind** | Luminosity | Snow |
|---|---|---|---|---|---|---|---|
| 1778309281 | 14.44° C | 47% | 1013.5 hPa | 0 mm | - | 0 W/m² | - |
| 1778308380 | 13.89° C | 48% | 1014 hPa | 0 mm | - | 0 W/m² | - |
| 1778307480 | 13.89° C | 50% | 1014 hPa | 0 mm | - | 0 W/m² | - |
| 1778306580 | 13.89° C | 50% | 1014.1 hPa | 0 mm | - | 0 W/m² | - |
| 1778305680 | 13.89° C | 51% | 1014.3 hPa | 0 mm | - | 0 W/m² | - |
| 1778304780 | 13.89° C | 50% | 1014.6 hPa | 0 mm | - | 0 W/m² | - |
| 1778303880 | 13.89° C | 49% | 1014.9 hPa | 0 mm | - | 0 W/m² | - |
| 1778302980 | 14.44° C | 49% | 1015.1 hPa | 0 mm | - | 0 W/m² | - |
| 1778302080 | 15° C | 47% | 1015.3 hPa | 0 mm | - | 0 W/m² | - |
| 1778301180 | 15° C | 46% | 1015.4 hPa | 0 mm | - | 0 W/m² | - |
| 1778300280 | 15° C | 46% | 1015.7 hPa | 0 mm | - | 0 W/m² | - |
| 1778299380 | 15° C | 45% | 1015.9 hPa | 0 mm | - | 0 W/m² | - |
| 1778298480 | 13.89° C | 50% | 1015.8 hPa | 0 mm | - | 0 W/m² | - |
| 1778297580 | 14.44° C | 49% | 1015.8 hPa | 0 mm | - | 0 W/m² | - |
| 1778296680 | 14.44° C | 49% | 1015.6 hPa | 0 mm | - | 0 W/m² | - |
| 1778295780 | 15.56° C | 47% | 1015.4 hPa | 0 mm | - | 0 W/m² | - |
| 1778294880 | 15° C | 47% | 1015.6 hPa | 0 mm | - | 0 W/m² | - |
| 1778293980 | 15.56° C | 46% | 1015.1 hPa | 0 mm | - | 0 W/m² | - |
| 1778293080 | 16.11° C | 46% | 1015.1 hPa | 0 mm | - | 0 W/m² | - |
| 1778292180 | 16.67° C | 43% | 1014.7 hPa | 0 mm | - | 4 W/m² | - |
| 1778291280 | 17.78° C | 41% | 1015 hPa | 0 mm | - | 15 W/m² | - |
| 1778290380 | 18.33° C | 40% | 1014.9 hPa | 0 mm | - | 27 W/m² | - |
| 1778289480 | 19.44° C | 37% | 1014.5 hPa | 0 mm | - | 59 W/m² | - |
| 1778288580 | 20° C | 35% | 1014.7 hPa | 0 mm | - | 94 W/m² | - |
| 1778287680 | 20.56° C | 34% | 1014.6 hPa | 0 mm | - | 131 W/m² | - |
* Rain since midnight (hover to see other rain measurements)
** Current wind speed in m/s (hover to see current wind gust speed)